<?xml version="1.0" encoding="UTF-8" standalone="no" ?>
<gpx xmlns="http://www.topografix.com/GPX/1/1" xmlns:xsi="http://www.w3.org/2001/XMLSchema-instance" xsi:schemaLocation="http://www.topografix.com/GPX/1/1 http://www.topografix.com/GPX/1/1/gpx.xsd" version="1.1" creator="VisuGPX - https://www.visugpx.com">
  <metadata>
    <name>Davrinche20101</name>
    <desc><![CDATA[la partie 1 des repérages]]></desc>
  </metadata>
  <trk>
    <name><![CDATA[--Orcines-- OR-5370351:ser-fr02-vtt-l3]]></name>
    <trkseg>
      <trkpt lat="45.79901" lon="2.99085">
        <ele>964</ele>
        <time>2015-10-17T14:42:04Z</time>
      </trkpt>
      <trkpt lat="45.79889" lon="2.9902">
        <ele>964</ele>
        <time>2015-10-17T14:44:04Z</time>
      </trkpt>
      <trkpt lat="45.79865" lon="2.98948">
        <ele>964</ele>
        <time>2015-10-17T14:46:04Z</time>
      </trkpt>
      <trkpt lat="45.7985" lon="2.98879">
        <ele>965</ele>
        <time>2015-10-17T14:48:04Z</time>
      </trkpt>
      <trkpt lat="45.79834" lon="2.98827">
        <ele>965</ele>
        <time>2015-10-17T14:50:04Z</time>
      </trkpt>
      <trkpt lat="45.7982" lon="2.98778">
        <ele>965</ele>
        <time>2015-10-17T14:52:04Z</time>
      </trkpt>
      <trkpt lat="45.79858" lon="2.98742">
        <ele>967</ele>
        <time>2015-10-17T14:54:04Z</time>
      </trkpt>
      <trkpt lat="45.79879" lon="2.98705">
        <ele>966</ele>
        <time>2015-10-17T14:56:04Z</time>
      </trkpt>
      <trkpt lat="45.7987" lon="2.98645">
        <ele>963</ele>
        <time>2015-10-17T14:58:04Z</time>
      </trkpt>
      <trkpt lat="45.79859" lon="2.98606">
        <ele>962</ele>
        <time>2015-10-17T15:00:04Z</time>
      </trkpt>
      <trkpt lat="45.7984" lon="2.98563">
        <ele>962</ele>
        <time>2015-10-17T15:02:04Z</time>
      </trkpt>
      <trkpt lat="45.79831" lon="2.98512">
        <ele>964</ele>
        <time>2015-10-17T15:04:04Z</time>
      </trkpt>
      <trkpt lat="45.79856" lon="2.98486">
        <ele>965</ele>
        <time>2015-10-17T15:06:04Z</time>
      </trkpt>
      <trkpt lat="45.79886" lon="2.98452">
        <ele>966</ele>
        <time>2015-10-17T15:08:04Z</time>
      </trkpt>
      <trkpt lat="45.79924" lon="2.98433">
        <ele>967</ele>
        <time>2015-10-17T15:10:04Z</time>
      </trkpt>
      <trkpt lat="45.79951" lon="2.98387">
        <ele>968</ele>
        <time>2015-10-17T15:12:04Z</time>
      </trkpt>
      <trkpt lat="45.79967" lon="2.98355">
        <ele>970</ele>
        <time>2015-10-17T15:14:04Z</time>
      </trkpt>
      <trkpt lat="45.80012" lon="2.98364">
        <ele>968</ele>
        <time>2015-10-17T15:16:04Z</time>
      </trkpt>
      <trkpt lat="45.80049" lon="2.98372">
        <ele>969</ele>
        <time>2015-10-17T15:18:04Z</time>
      </trkpt>
      <trkpt lat="45.80075" lon="2.98398">
        <ele>968</ele>
        <time>2015-10-17T15:20:04Z</time>
      </trkpt>
      <trkpt lat="45.80106" lon="2.98415">
        <ele>969</ele>
        <time>2015-10-17T15:22:04Z</time>
      </trkpt>
      <trkpt lat="45.80112" lon="2.98469">
        <ele>968</ele>
        <time>2015-10-17T15:24:04Z</time>
      </trkpt>
      <trkpt lat="45.80138" lon="2.98486">
        <ele>970</ele>
        <time>2015-10-17T15:26:04Z</time>
      </trkpt>
      <trkpt lat="45.80163" lon="2.98503">
        <ele>971</ele>
        <time>2015-10-17T15:28:04Z</time>
      </trkpt>
      <trkpt lat="45.80187" lon="2.98561">
        <ele>973</ele>
        <time>2015-10-17T15:30:04Z</time>
      </trkpt>
      <trkpt lat="45.80202" lon="2.98591">
        <ele>974</ele>
        <time>2015-10-17T15:32:04Z</time>
      </trkpt>
      <trkpt lat="45.80197" lon="2.98641">
        <ele>972</ele>
        <time>2015-10-17T15:34:04Z</time>
      </trkpt>
      <trkpt lat="45.80212" lon="2.98671">
        <ele>972</ele>
        <time>2015-10-17T15:36:04Z</time>
      </trkpt>
      <trkpt lat="45.80247" lon="2.98711">
        <ele>974</ele>
        <time>2015-10-17T15:38:04Z</time>
      </trkpt>
      <trkpt lat="45.8028" lon="2.98696">
        <ele>974</ele>
        <time>2015-10-17T15:40:04Z</time>
      </trkpt>
      <trkpt lat="45.80317" lon="2.98686">
        <ele>974</ele>
        <time>2015-10-17T15:42:04Z</time>
      </trkpt>
      <trkpt lat="45.80343" lon="2.98711">
        <ele>975</ele>
        <time>2015-10-17T15:44:04Z</time>
      </trkpt>
      <trkpt lat="45.80341" lon="2.98761">
        <ele>976</ele>
        <time>2015-10-17T15:46:04Z</time>
      </trkpt>
      <trkpt lat="45.80384" lon="2.98759">
        <ele>977</ele>
        <time>2015-10-17T15:48:04Z</time>
      </trkpt>
      <trkpt lat="45.80381" lon="2.98815">
        <ele>978</ele>
        <time>2015-10-17T15:50:04Z</time>
      </trkpt>
      <trkpt lat="45.80372" lon="2.98886">
        <ele>977</ele>
        <time>2015-10-17T15:52:04Z</time>
      </trkpt>
      <trkpt lat="45.80394" lon="2.98918">
        <ele>977</ele>
        <time>2015-10-17T15:54:04Z</time>
      </trkpt>
      <trkpt lat="45.80412" lon="2.98993">
        <ele>973</ele>
        <time>2015-10-17T15:56:04Z</time>
      </trkpt>
      <trkpt lat="45.80418" lon="2.99066">
        <ele>972</ele>
        <time>2015-10-17T15:58:04Z</time>
      </trkpt>
      <trkpt lat="45.80433" lon="2.99113">
        <ele>974</ele>
        <time>2015-10-17T16:00:04Z</time>
      </trkpt>
      <trkpt lat="45.80457" lon="2.9915">
        <ele>977</ele>
        <time>2015-10-17T16:02:04Z</time>
      </trkpt>
      <trkpt lat="45.80487" lon="2.99195">
        <ele>979</ele>
        <time>2015-10-17T16:04:04Z</time>
      </trkpt>
      <trkpt lat="45.8054" lon="2.99243">
        <ele>977</ele>
        <time>2015-10-17T16:06:04Z</time>
      </trkpt>
      <trkpt lat="45.80588" lon="2.99284">
        <ele>974</ele>
        <time>2015-10-17T16:08:04Z</time>
      </trkpt>
      <trkpt lat="45.80635" lon="2.99322">
        <ele>971</ele>
        <time>2015-10-17T16:10:04Z</time>
      </trkpt>
      <trkpt lat="45.80676" lon="2.99379">
        <ele>969</ele>
        <time>2015-10-17T16:12:04Z</time>
      </trkpt>
      <trkpt lat="45.8074" lon="2.99384">
        <ele>969</ele>
        <time>2015-10-17T16:14:04Z</time>
      </trkpt>
      <trkpt lat="45.80799" lon="2.99388">
        <ele>970</ele>
        <time>2015-10-17T16:16:04Z</time>
      </trkpt>
      <trkpt lat="45.80857" lon="2.99359">
        <ele>962</ele>
        <time>2015-10-17T16:18:04Z</time>
      </trkpt>
      <trkpt lat="45.80915" lon="2.99354">
        <ele>956</ele>
        <time>2015-10-17T16:20:04Z</time>
      </trkpt>
      <trkpt lat="45.80963" lon="2.99371">
        <ele>958</ele>
        <time>2015-10-17T16:22:04Z</time>
      </trkpt>
      <trkpt lat="45.8103" lon="2.99385">
        <ele>955</ele>
        <time>2015-10-17T16:24:04Z</time>
      </trkpt>
      <trkpt lat="45.81065" lon="2.99414">
        <ele>955</ele>
        <time>2015-10-17T16:26:04Z</time>
      </trkpt>
      <trkpt lat="45.81123" lon="2.99433">
        <ele>949</ele>
        <time>2015-10-17T16:28:04Z</time>
      </trkpt>
      <trkpt lat="45.81162" lon="2.99446">
        <ele>945</ele>
        <time>2015-10-17T16:30:04Z</time>
      </trkpt>
      <trkpt lat="45.8122" lon="2.99443">
        <ele>940</ele>
        <time>2015-10-17T16:32:04Z</time>
      </trkpt>
      <trkpt lat="45.81288" lon="2.99434">
        <ele>936</ele>
        <time>2015-10-17T16:34:04Z</time>
      </trkpt>
      <trkpt lat="45.81366" lon="2.99424">
        <ele>931</ele>
        <time>2015-10-17T16:36:04Z</time>
      </trkpt>
      <trkpt lat="45.81439" lon="2.99404">
        <ele>926</ele>
        <time>2015-10-17T16:38:04Z</time>
      </trkpt>
      <trkpt lat="45.8152" lon="2.99399">
        <ele>921</ele>
        <time>2015-10-17T16:40:04Z</time>
      </trkpt>
      <trkpt lat="45.81557" lon="2.99421">
        <ele>918</ele>
        <time>2015-10-17T16:42:04Z</time>
      </trkpt>
      <trkpt lat="45.81601" lon="2.9942">
        <ele>915</ele>
        <time>2015-10-17T16:44:04Z</time>
      </trkpt>
      <trkpt lat="45.81656" lon="2.99404">
        <ele>914</ele>
        <time>2015-10-17T16:46:04Z</time>
      </trkpt>
      <trkpt lat="45.81694" lon="2.99409">
        <ele>911</ele>
        <time>2015-10-17T16:48:04Z</time>
      </trkpt>
      <trkpt lat="45.81787" lon="2.99433">
        <ele>903</ele>
        <time>2015-10-17T16:50:04Z</time>
      </trkpt>
      <trkpt lat="45.81845" lon="2.99442">
        <ele>903</ele>
        <time>2015-10-17T16:52:04Z</time>
      </trkpt>
      <trkpt lat="45.8194" lon="2.99473">
        <ele>901</ele>
        <time>2015-10-17T16:54:04Z</time>
      </trkpt>
      <trkpt lat="45.82023" lon="2.99497">
        <ele>898</ele>
        <time>2015-10-17T16:56:04Z</time>
      </trkpt>
      <trkpt lat="45.82053" lon="2.99504">
        <ele>898</ele>
        <time>2015-10-17T16:58:04Z</time>
      </trkpt>
      <trkpt lat="45.82121" lon="2.99497">
        <ele>897</ele>
        <time>2015-10-17T17:00:04Z</time>
      </trkpt>
      <trkpt lat="45.82177" lon="2.99499">
        <ele>897</ele>
        <time>2015-10-17T17:02:04Z</time>
      </trkpt>
      <trkpt lat="45.8225" lon="2.99518">
        <ele>901</ele>
        <time>2015-10-17T17:04:04Z</time>
      </trkpt>
      <trkpt lat="45.82289" lon="2.99514">
        <ele>902</ele>
        <time>2015-10-17T17:06:04Z</time>
      </trkpt>
      <trkpt lat="45.82348" lon="2.99495">
        <ele>901</ele>
        <time>2015-10-17T17:08:04Z</time>
      </trkpt>
      <trkpt lat="45.82415" lon="2.99502">
        <ele>893</ele>
        <time>2015-10-17T17:10:04Z</time>
      </trkpt>
      <trkpt lat="45.82433" lon="2.99412">
        <ele>893</ele>
        <time>2015-10-17T17:12:04Z</time>
      </trkpt>
      <trkpt lat="45.82465" lon="2.99264">
        <ele>895</ele>
        <time>2015-10-17T17:14:04Z</time>
      </trkpt>
      <trkpt lat="45.82471" lon="2.99178">
        <ele>894</ele>
        <time>2015-10-17T17:16:04Z</time>
      </trkpt>
      <trkpt lat="45.82496" lon="2.99095">
        <ele>894</ele>
        <time>2015-10-17T17:18:04Z</time>
      </trkpt>
      <trkpt lat="45.82511" lon="2.98987">
        <ele>895</ele>
        <time>2015-10-17T17:20:04Z</time>
      </trkpt>
      <trkpt lat="45.8253" lon="2.98898">
        <ele>893</ele>
        <time>2015-10-17T17:22:04Z</time>
      </trkpt>
      <trkpt lat="45.82545" lon="2.9885">
        <ele>888</ele>
        <time>2015-10-17T17:24:04Z</time>
      </trkpt>
      <trkpt lat="45.82583" lon="2.98771">
        <ele>881</ele>
        <time>2015-10-17T17:26:04Z</time>
      </trkpt>
      <trkpt lat="45.82618" lon="2.98688">
        <ele>886</ele>
        <time>2015-10-17T17:28:04Z</time>
      </trkpt>
      <trkpt lat="45.8267" lon="2.98574">
        <ele>886</ele>
        <time>2015-10-17T17:30:04Z</time>
      </trkpt>
      <trkpt lat="45.8271" lon="2.98485">
        <ele>887</ele>
        <time>2015-10-17T17:32:04Z</time>
      </trkpt>
      <trkpt lat="45.82726" lon="2.98418">
        <ele>887</ele>
        <time>2015-10-17T17:34:04Z</time>
      </trkpt>
      <trkpt lat="45.82794" lon="2.98496">
        <ele>885</ele>
        <time>2015-10-17T17:36:04Z</time>
      </trkpt>
      <trkpt lat="45.8277" lon="2.98431">
        <ele>885</ele>
        <time>2015-10-17T17:38:04Z</time>
      </trkpt>
      <trkpt lat="45.82757" lon="2.98348">
        <ele>887</ele>
        <time>2015-10-17T17:40:04Z</time>
      </trkpt>
      <trkpt lat="45.82789" lon="2.98307">
        <ele>889</ele>
        <time>2015-10-17T17:42:04Z</time>
      </trkpt>
      <trkpt lat="45.82865" lon="2.98262">
        <ele>885</ele>
        <time>2015-10-17T17:44:04Z</time>
      </trkpt>
      <trkpt lat="45.82936" lon="2.98195">
        <ele>883</ele>
        <time>2015-10-17T17:46:04Z</time>
      </trkpt>
      <trkpt lat="45.83047" lon="2.98035">
        <ele>894</ele>
        <time>2015-10-17T17:48:04Z</time>
      </trkpt>
      <trkpt lat="45.83058" lon="2.97976">
        <ele>896</ele>
        <time>2015-10-17T17:50:04Z</time>
      </trkpt>
      <trkpt lat="45.83083" lon="2.97844">
        <ele>898</ele>
        <time>2015-10-17T17:52:04Z</time>
      </trkpt>
      <trkpt lat="45.83077" lon="2.97875">
        <ele>897</ele>
        <time>2015-10-17T17:54:04Z</time>
      </trkpt>
      <trkpt lat="45.83094" lon="2.97787">
        <ele>898</ele>
        <time>2015-10-17T17:56:04Z</time>
      </trkpt>
      <trkpt lat="45.83101" lon="2.97679">
        <ele>902</ele>
        <time>2015-10-17T17:58:04Z</time>
      </trkpt>
      <trkpt lat="45.83099" lon="2.97581">
        <ele>907</ele>
        <time>2015-10-17T18:00:04Z</time>
      </trkpt>
      <trkpt lat="45.83099" lon="2.97502">
        <ele>910</ele>
        <time>2015-10-17T18:02:04Z</time>
      </trkpt>
      <trkpt lat="45.83058" lon="2.97405">
        <ele>921</ele>
        <time>2015-10-17T18:04:04Z</time>
      </trkpt>
      <trkpt lat="45.83038" lon="2.97335">
        <ele>929</ele>
        <time>2015-10-17T18:06:04Z</time>
      </trkpt>
      <trkpt lat="45.8302" lon="2.97216">
        <ele>934</ele>
        <time>2015-10-17T18:08:04Z</time>
      </trkpt>
      <trkpt lat="45.82989" lon="2.9709">
        <ele>940</ele>
        <time>2015-10-17T18:10:04Z</time>
      </trkpt>
      <trkpt lat="45.82957" lon="2.96964">
        <ele>942</ele>
        <time>2015-10-17T18:12:04Z</time>
      </trkpt>
      <trkpt lat="45.8292" lon="2.96868">
        <ele>945</ele>
        <time>2015-10-17T18:14:04Z</time>
      </trkpt>
      <trkpt lat="45.82865" lon="2.9681">
        <ele>952</ele>
        <time>2015-10-17T18:16:04Z</time>
      </trkpt>
      <trkpt lat="45.82834" lon="2.96708">
        <ele>954</ele>
        <time>2015-10-17T18:18:04Z</time>
      </trkpt>
      <trkpt lat="45.8278" lon="2.96605">
        <ele>959</ele>
        <time>2015-10-17T18:20:04Z</time>
      </trkpt>
      <trkpt lat="45.82735" lon="2.96529">
        <ele>961</ele>
        <time>2015-10-17T18:22:04Z</time>
      </trkpt>
      <trkpt lat="45.82694" lon="2.9647">
        <ele>965</ele>
        <time>2015-10-17T18:24:04Z</time>
      </trkpt>
      <trkpt lat="45.82616" lon="2.96419">
        <ele>974</ele>
        <time>2015-10-17T18:26:04Z</time>
      </trkpt>
      <trkpt lat="45.82534" lon="2.96362">
        <ele>978</ele>
        <time>2015-10-17T18:28:04Z</time>
      </trkpt>
      <trkpt lat="45.82471" lon="2.96334">
        <ele>979</ele>
        <time>2015-10-17T18:30:04Z</time>
      </trkpt>
      <trkpt lat="45.82441" lon="2.96317">
        <ele>980</ele>
        <time>2015-10-17T18:32:04Z</time>
      </trkpt>
      <trkpt lat="45.82458" lon="2.96281">
        <ele>978</ele>
        <time>2015-10-17T18:34:04Z</time>
      </trkpt>
      <trkpt lat="45.82476" lon="2.9627">
        <ele>977</ele>
        <time>2015-10-17T18:36:04Z</time>
      </trkpt>
      <trkpt lat="45.82482" lon="2.96221">
        <ele>981</ele>
        <time>2015-10-17T18:38:04Z</time>
      </trkpt>
      <trkpt lat="45.82488" lon="2.96186">
        <ele>987</ele>
        <time>2015-10-17T18:40:04Z</time>
      </trkpt>
      <trkpt lat="45.82473" lon="2.96167">
        <ele>989</ele>
        <time>2015-10-17T18:42:04Z</time>
      </trkpt>
      <trkpt lat="45.82456" lon="2.96148">
        <ele>992</ele>
        <time>2015-10-17T18:44:04Z</time>
      </trkpt>
      <trkpt lat="45.82435" lon="2.96137">
        <ele>992</ele>
        <time>2015-10-17T18:46:04Z</time>
      </trkpt>
      <trkpt lat="45.8239" lon="2.96081">
        <ele>996</ele>
        <time>2015-10-17T18:48:04Z</time>
      </trkpt>
      <trkpt lat="45.82381" lon="2.9604">
        <ele>1001</ele>
        <time>2015-10-17T18:50:04Z</time>
      </trkpt>
      <trkpt lat="45.82428" lon="2.96013">
        <ele>1012</ele>
        <time>2015-10-17T18:52:04Z</time>
      </trkpt>
      <trkpt lat="45.82461" lon="2.95978">
        <ele>1021</ele>
        <time>2015-10-17T18:54:04Z</time>
      </trkpt>
      <trkpt lat="45.8248" lon="2.95935">
        <ele>1031</ele>
        <time>2015-10-17T18:56:04Z</time>
      </trkpt>
      <trkpt lat="45.82491" lon="2.9588">
        <ele>1043</ele>
        <time>2015-10-17T18:58:04Z</time>
      </trkpt>
      <trkpt lat="45.82506" lon="2.95843">
        <ele>1053</ele>
        <time>2015-10-17T19:00:04Z</time>
      </trkpt>
      <trkpt lat="45.82555" lon="2.958">
        <ele>1063</ele>
        <time>2015-10-17T19:02:04Z</time>
      </trkpt>
      <trkpt lat="45.82538" lon="2.95772">
        <ele>1068</ele>
        <time>2015-10-17T19:04:04Z</time>
      </trkpt>
      <trkpt lat="45.82525" lon="2.95693">
        <ele>1083</ele>
        <time>2015-10-17T19:06:04Z</time>
      </trkpt>
      <trkpt lat="45.82509" lon="2.95674">
        <ele>1088</ele>
        <time>2015-10-17T19:08:04Z</time>
      </trkpt>
      <trkpt lat="45.82498" lon="2.95626">
        <ele>1097</ele>
        <time>2015-10-17T19:10:04Z</time>
      </trkpt>
      <trkpt lat="45.82483" lon="2.95564">
        <ele>1103</ele>
        <time>2015-10-17T19:12:04Z</time>
      </trkpt>
      <trkpt lat="45.82485" lon="2.95525">
        <ele>1108</ele>
        <time>2015-10-17T19:14:04Z</time>
      </trkpt>
      <trkpt lat="45.82474" lon="2.95468">
        <ele>1111</ele>
        <time>2015-10-17T19:16:04Z</time>
      </trkpt>
      <trkpt lat="45.8247" lon="2.95414">
        <ele>1114</ele>
        <time>2015-10-17T19:18:04Z</time>
      </trkpt>
      <trkpt lat="45.82452" lon="2.95371">
        <ele>1113</ele>
        <time>2015-10-17T19:20:04Z</time>
      </trkpt>
      <trkpt lat="45.82426" lon="2.95332">
        <ele>1113</ele>
        <time>2015-10-17T19:22:04Z</time>
      </trkpt>
      <trkpt lat="45.82404" lon="2.95287">
        <ele>1107</ele>
        <time>2015-10-17T19:24:04Z</time>
      </trkpt>
      <trkpt lat="45.82389" lon="2.95251">
        <ele>1102</ele>
        <time>2015-10-17T19:26:04Z</time>
      </trkpt>
      <trkpt lat="45.82378" lon="2.95146">
        <ele>1096</ele>
        <time>2015-10-17T19:28:04Z</time>
      </trkpt>
      <trkpt lat="45.82369" lon="2.95103">
        <ele>1092</ele>
        <time>2015-10-17T19:30:04Z</time>
      </trkpt>
      <trkpt lat="45.82395" lon="2.95019">
        <ele>1091</ele>
        <time>2015-10-17T19:32:04Z</time>
      </trkpt>
      <trkpt lat="45.82414" lon="2.9506">
        <ele>1098</ele>
        <time>2015-10-17T19:34:04Z</time>
      </trkpt>
      <trkpt lat="45.82437" lon="2.95094">
        <ele>1099</ele>
        <time>2015-10-17T19:36:04Z</time>
      </trkpt>
      <trkpt lat="45.82495" lon="2.95133">
        <ele>1092</ele>
        <time>2015-10-17T19:38:04Z</time>
      </trkpt>
      <trkpt lat="45.82535" lon="2.95139">
        <ele>1092</ele>
        <time>2015-10-17T19:40:04Z</time>
      </trkpt>
      <trkpt lat="45.82597" lon="2.95169">
        <ele>1088</ele>
        <time>2015-10-17T19:42:04Z</time>
      </trkpt>
      <trkpt lat="45.82604" lon="2.95199">
        <ele>1087</ele>
        <time>2015-10-17T19:44:04Z</time>
      </trkpt>
      <trkpt lat="45.82627" lon="2.95197">
        <ele>1085</ele>
        <time>2015-10-17T19:46:04Z</time>
      </trkpt>
      <trkpt lat="45.82688" lon="2.95199">
        <ele>1078</ele>
        <time>2015-10-17T19:48:04Z</time>
      </trkpt>
      <trkpt lat="45.82751" lon="2.95159">
        <ele>1070</ele>
        <time>2015-10-17T19:50:04Z</time>
      </trkpt>
      <trkpt lat="45.82823" lon="2.95129">
        <ele>1059</ele>
        <time>2015-10-17T19:52:04Z</time>
      </trkpt>
      <trkpt lat="45.82897" lon="2.95109">
        <ele>1045</ele>
        <time>2015-10-17T19:54:04Z</time>
      </trkpt>
      <trkpt lat="45.82956" lon="2.95075">
        <ele>1031</ele>
        <time>2015-10-17T19:56:04Z</time>
      </trkpt>
      <trkpt lat="45.82999" lon="2.95071">
        <ele>1023</ele>
        <time>2015-10-17T19:58:04Z</time>
      </trkpt>
      <trkpt lat="45.83024" lon="2.95124">
        <ele>1024</ele>
        <time>2015-10-17T20:00:04Z</time>
      </trkpt>
      <trkpt lat="45.83042" lon="2.95201">
        <ele>1026</ele>
        <time>2015-10-17T20:02:04Z</time>
      </trkpt>
      <trkpt lat="45.83066" lon="2.95298">
        <ele>1028</ele>
        <time>2015-10-17T20:04:04Z</time>
      </trkpt>
      <trkpt lat="45.83089" lon="2.9536">
        <ele>1028</ele>
        <time>2015-10-17T20:06:04Z</time>
      </trkpt>
      <trkpt lat="45.8311" lon="2.95412">
        <ele>1030</ele>
        <time>2015-10-17T20:08:04Z</time>
      </trkpt>
      <trkpt lat="45.83123" lon="2.95483">
        <ele>1033</ele>
        <time>2015-10-17T20:10:04Z</time>
      </trkpt>
      <trkpt lat="45.83156" lon="2.95435">
        <ele>1027</ele>
        <time>2015-10-17T20:12:04Z</time>
      </trkpt>
      <trkpt lat="45.83204" lon="2.95438">
        <ele>1027</ele>
        <time>2015-10-17T20:14:04Z</time>
      </trkpt>
      <trkpt lat="45.83307" lon="2.95414">
        <ele>1024</ele>
        <time>2015-10-17T20:16:04Z</time>
      </trkpt>
      <trkpt lat="45.83353" lon="2.95399">
        <ele>1024</ele>
        <time>2015-10-17T20:18:04Z</time>
      </trkpt>
      <trkpt lat="45.83394" lon="2.95401">
        <ele>1028</ele>
        <time>2015-10-17T20:20:04Z</time>
      </trkpt>
      <trkpt lat="45.83434" lon="2.95438">
        <ele>1035</ele>
        <time>2015-10-17T20:22:04Z</time>
      </trkpt>
      <trkpt lat="45.83492" lon="2.95448">
        <ele>1033</ele>
        <time>2015-10-17T20:24:04Z</time>
      </trkpt>
      <trkpt lat="45.83542" lon="2.95483">
        <ele>1038</ele>
        <time>2015-10-17T20:26:04Z</time>
      </trkpt>
      <trkpt lat="45.83582" lon="2.95513">
        <ele>1041</ele>
        <time>2015-10-17T20:28:04Z</time>
      </trkpt>
      <trkpt lat="45.83609" lon="2.95549">
        <ele>1043</ele>
        <time>2015-10-17T20:30:04Z</time>
      </trkpt>
      <trkpt lat="45.83661" lon="2.95549">
        <ele>1034</ele>
        <time>2015-10-17T20:32:04Z</time>
      </trkpt>
      <trkpt lat="45.83685" lon="2.95603">
        <ele>1033</ele>
        <time>2015-10-17T20:34:04Z</time>
      </trkpt>
      <trkpt lat="45.83666" lon="2.95637">
        <ele>1035</ele>
        <time>2015-10-17T20:36:04Z</time>
      </trkpt>
      <trkpt lat="45.83645" lon="2.95671">
        <ele>1039</ele>
        <time>2015-10-17T20:38:04Z</time>
      </trkpt>
      <trkpt lat="45.83628" lon="2.9571">
        <ele>1042</ele>
        <time>2015-10-17T20:40:04Z</time>
      </trkpt>
      <trkpt lat="45.83613" lon="2.95764">
        <ele>1043</ele>
        <time>2015-10-17T20:42:04Z</time>
      </trkpt>
      <trkpt lat="45.83575" lon="2.95839">
        <ele>1044</ele>
        <time>2015-10-17T20:44:04Z</time>
      </trkpt>
      <trkpt lat="45.83554" lon="2.95873">
        <ele>1041</ele>
        <time>2015-10-17T20:46:04Z</time>
      </trkpt>
      <trkpt lat="45.83588" lon="2.95903">
        <ele>1035</ele>
        <time>2015-10-17T20:48:04Z</time>
      </trkpt>
      <trkpt lat="45.83664" lon="2.9591">
        <ele>1028</ele>
        <time>2015-10-17T20:50:04Z</time>
      </trkpt>
      <trkpt lat="45.83688" lon="2.95905">
        <ele>1027</ele>
        <time>2015-10-17T20:52:04Z</time>
      </trkpt>
      <trkpt lat="45.83667" lon="2.95965">
        <ele>1030</ele>
        <time>2015-10-17T20:54:04Z</time>
      </trkpt>
      <trkpt lat="45.83703" lon="2.96008">
        <ele>1035</ele>
        <time>2015-10-17T20:56:04Z</time>
      </trkpt>
      <trkpt lat="45.83727" lon="2.96017">
        <ele>1037</ele>
        <time>2015-10-17T20:58:04Z</time>
      </trkpt>
      <trkpt lat="45.8373" lon="2.96088">
        <ele>1044</ele>
        <time>2015-10-17T21:00:04Z</time>
      </trkpt>
      <trkpt lat="45.83736" lon="2.96139">
        <ele>1048</ele>
        <time>2015-10-17T21:02:04Z</time>
      </trkpt>
      <trkpt lat="45.83742" lon="2.96201">
        <ele>1053</ele>
        <time>2015-10-17T21:04:04Z</time>
      </trkpt>
      <trkpt lat="45.83805" lon="2.96223">
        <ele>1068</ele>
        <time>2015-10-17T21:06:04Z</time>
      </trkpt>
      <trkpt lat="45.83856" lon="2.96225">
        <ele>1078</ele>
        <time>2015-10-17T21:08:04Z</time>
      </trkpt>
      <trkpt lat="45.83914" lon="2.96225">
        <ele>1087</ele>
        <time>2015-10-17T21:10:04Z</time>
      </trkpt>
      <trkpt lat="45.83956" lon="2.96199">
        <ele>1090</ele>
        <time>2015-10-17T21:12:04Z</time>
      </trkpt>
      <trkpt lat="45.84025" lon="2.96227">
        <ele>1101</ele>
        <time>2015-10-17T21:14:04Z</time>
      </trkpt>
      <trkpt lat="45.84069" lon="2.96259">
        <ele>1111</ele>
        <time>2015-10-17T21:16:04Z</time>
      </trkpt>
      <trkpt lat="45.84104" lon="2.96289">
        <ele>1120</ele>
        <time>2015-10-17T21:18:04Z</time>
      </trkpt>
      <trkpt lat="45.84135" lon="2.96326">
        <ele>1130</ele>
        <time>2015-10-17T21:20:04Z</time>
      </trkpt>
      <trkpt lat="45.84183" lon="2.96354">
        <ele>1137</ele>
        <time>2015-10-17T21:22:04Z</time>
      </trkpt>
      <trkpt lat="45.84222" lon="2.96395">
        <ele>1135</ele>
        <time>2015-10-17T21:24:04Z</time>
      </trkpt>
      <trkpt lat="45.84249" lon="2.9644">
        <ele>1134</ele>
        <time>2015-10-17T21:26:04Z</time>
      </trkpt>
      <trkpt lat="45.84291" lon="2.96493">
        <ele>1133</ele>
        <time>2015-10-17T21:28:04Z</time>
      </trkpt>
      <trkpt lat="45.84341" lon="2.96508">
        <ele>1137</ele>
        <time>2015-10-17T21:30:04Z</time>
      </trkpt>
      <trkpt lat="45.84391" lon="2.96513">
        <ele>1139</ele>
        <time>2015-10-17T21:32:04Z</time>
      </trkpt>
      <trkpt lat="45.84391" lon="2.96463">
        <ele>1135</ele>
        <time>2015-10-17T21:34:04Z</time>
      </trkpt>
      <trkpt lat="45.84422" lon="2.96442">
        <ele>1133</ele>
        <time>2015-10-17T21:36:04Z</time>
      </trkpt>
      <trkpt lat="45.84461" lon="2.96472">
        <ele>1128</ele>
        <time>2015-10-17T21:38:04Z</time>
      </trkpt>
      <trkpt lat="45.84476" lon="2.96538">
        <ele>1130</ele>
        <time>2015-10-17T21:40:04Z</time>
      </trkpt>
      <trkpt lat="45.84527" lon="2.96553">
        <ele>1127</ele>
        <time>2015-10-17T21:42:04Z</time>
      </trkpt>
      <trkpt lat="45.84593" lon="2.96579">
        <ele>1135</ele>
        <time>2015-10-17T21:44:04Z</time>
      </trkpt>
      <trkpt lat="45.84613" lon="2.96656">
        <ele>1140</ele>
        <time>2015-10-17T21:46:04Z</time>
      </trkpt>
      <trkpt lat="45.84664" lon="2.96667">
        <ele>1150</ele>
        <time>2015-10-17T21:48:04Z</time>
      </trkpt>
      <trkpt lat="45.84678" lon="2.96714">
        <ele>1145</ele>
        <time>2015-10-17T21:50:04Z</time>
      </trkpt>
      <trkpt lat="45.84696" lon="2.96759">
        <ele>1141</ele>
        <time>2015-10-17T21:52:04Z</time>
      </trkpt>
      <trkpt lat="45.84715" lon="2.96809">
        <ele>1138</ele>
        <time>2015-10-17T21:54:04Z</time>
      </trkpt>
      <trkpt lat="45.84747" lon="2.96854">
        <ele>1140</ele>
        <time>2015-10-17T21:56:04Z</time>
      </trkpt>
      <trkpt lat="45.84794" lon="2.9689">
        <ele>1137</ele>
        <time>2015-10-17T21:58:04Z</time>
      </trkpt>
      <trkpt lat="45.84851" lon="2.9686">
        <ele>1129</ele>
        <time>2015-10-17T22:00:04Z</time>
      </trkpt>
      <trkpt lat="45.84887" lon="2.96824">
        <ele>1121</ele>
        <time>2015-10-17T22:02:04Z</time>
      </trkpt>
      <trkpt lat="45.84918" lon="2.96742">
        <ele>1115</ele>
        <time>2015-10-17T22:04:04Z</time>
      </trkpt>
      <trkpt lat="45.84975" lon="2.96721">
        <ele>1101</ele>
        <time>2015-10-17T22:06:04Z</time>
      </trkpt>
      <trkpt lat="45.85056" lon="2.96658">
        <ele>1080</ele>
        <time>2015-10-17T22:08:04Z</time>
      </trkpt>
      <trkpt lat="45.85102" lon="2.9659">
        <ele>1066</ele>
        <time>2015-10-17T22:10:04Z</time>
      </trkpt>
      <trkpt lat="45.85119" lon="2.96555">
        <ele>1059</ele>
        <time>2015-10-17T22:12:04Z</time>
      </trkpt>
      <trkpt lat="45.85143" lon="2.96463">
        <ele>1045</ele>
        <time>2015-10-17T22:14:04Z</time>
      </trkpt>
      <trkpt lat="45.85161" lon="2.96386">
        <ele>1038</ele>
        <time>2015-10-17T22:16:04Z</time>
      </trkpt>
      <trkpt lat="45.85192" lon="2.96437">
        <ele>1037</ele>
        <time>2015-10-17T22:18:04Z</time>
      </trkpt>
      <trkpt lat="45.8522" lon="2.96478">
        <ele>1035</ele>
        <time>2015-10-17T22:20:04Z</time>
      </trkpt>
      <trkpt lat="45.85241" lon="2.96532">
        <ele>1029</ele>
        <time>2015-10-17T22:22:04Z</time>
      </trkpt>
      <trkpt lat="45.85258" lon="2.96585">
        <ele>1024</ele>
        <time>2015-10-17T22:24:04Z</time>
      </trkpt>
      <trkpt lat="45.85267" lon="2.96616">
        <ele>1022</ele>
        <time>2015-10-17T22:26:04Z</time>
      </trkpt>
      <trkpt lat="45.85297" lon="2.9665">
        <ele>1017</ele>
        <time>2015-10-17T22:28:04Z</time>
      </trkpt>
      <trkpt lat="45.85285" lon="2.96701">
        <ele>1017</ele>
        <time>2015-10-17T22:30:04Z</time>
      </trkpt>
      <trkpt lat="45.8528" lon="2.96731">
        <ele>1016</ele>
        <time>2015-10-17T22:32:04Z</time>
      </trkpt>
      <trkpt lat="45.85252" lon="2.96766">
        <ele>1019</ele>
        <time>2015-10-17T22:34:04Z</time>
      </trkpt>
      <trkpt lat="45.85222" lon="2.96837">
        <ele>1021</ele>
        <time>2015-10-17T22:36:04Z</time>
      </trkpt>
      <trkpt lat="45.8525" lon="2.96937">
        <ele>1014</ele>
        <time>2015-10-17T22:38:04Z</time>
      </trkpt>
      <trkpt lat="45.85247" lon="2.97004">
        <ele>1010</ele>
        <time>2015-10-17T22:40:04Z</time>
      </trkpt>
      <trkpt lat="45.85243" lon="2.97036">
        <ele>1009</ele>
        <time>2015-10-17T22:42:04Z</time>
      </trkpt>
      <trkpt lat="45.85219" lon="2.97073">
        <ele>1008</ele>
        <time>2015-10-17T22:44:04Z</time>
      </trkpt>
      <trkpt lat="45.85216" lon="2.97118">
        <ele>1006</ele>
        <time>2015-10-17T22:46:04Z</time>
      </trkpt>
      <trkpt lat="45.85187" lon="2.97167">
        <ele>1004</ele>
        <time>2015-10-17T22:48:04Z</time>
      </trkpt>
      <trkpt lat="45.85164" lon="2.97218">
        <ele>1003</ele>
        <time>2015-10-17T22:50:04Z</time>
      </trkpt>
      <trkpt lat="45.85164" lon="2.97249">
        <ele>1002</ele>
        <time>2015-10-17T22:52:04Z</time>
      </trkpt>
      <trkpt lat="45.85125" lon="2.97287">
        <ele>998</ele>
        <time>2015-10-17T22:54:04Z</time>
      </trkpt>
      <trkpt lat="45.85104" lon="2.97321">
        <ele>993</ele>
        <time>2015-10-17T22:56:04Z</time>
      </trkpt>
      <trkpt lat="45.85083" lon="2.97349">
        <ele>987</ele>
        <time>2015-10-17T22:58:04Z</time>
      </trkpt>
      <trkpt lat="45.85065" lon="2.97373">
        <ele>982</ele>
        <time>2015-10-17T23:00:04Z</time>
      </trkpt>
      <trkpt lat="45.85044" lon="2.97367">
        <ele>985</ele>
        <time>2015-10-17T23:02:04Z</time>
      </trkpt>
      <trkpt lat="45.84989" lon="2.97388">
        <ele>981</ele>
        <time>2015-10-17T23:04:04Z</time>
      </trkpt>
      <trkpt lat="45.84951" lon="2.97392">
        <ele>980</ele>
        <time>2015-10-17T23:06:04Z</time>
      </trkpt>
      <trkpt lat="45.84921" lon="2.97397">
        <ele>979</ele>
        <time>2015-10-17T23:08:04Z</time>
      </trkpt>
      <trkpt lat="45.84888" lon="2.97414">
        <ele>973</ele>
        <time>2015-10-17T23:10:04Z</time>
      </trkpt>
      <trkpt lat="45.84866" lon="2.97422">
        <ele>970</ele>
        <time>2015-10-17T23:12:04Z</time>
      </trkpt>
      <trkpt lat="45.84817" lon="2.97467">
        <ele>957</ele>
        <time>2015-10-17T23:14:04Z</time>
      </trkpt>
      <trkpt lat="45.84785" lon="2.97482">
        <ele>953</ele>
        <time>2015-10-17T23:16:04Z</time>
      </trkpt>
      <trkpt lat="45.84758" lon="2.97504">
        <ele>947</ele>
        <time>2015-10-17T23:18:04Z</time>
      </trkpt>
      <trkpt lat="45.84732" lon="2.97523">
        <ele>942</ele>
        <time>2015-10-17T23:20:04Z</time>
      </trkpt>
      <trkpt lat="45.84696" lon="2.97538">
        <ele>938</ele>
        <time>2015-10-17T23:22:04Z</time>
      </trkpt>
      <trkpt lat="45.8467" lon="2.97551">
        <ele>934</ele>
        <time>2015-10-17T23:24:04Z</time>
      </trkpt>
      <trkpt lat="45.84615" lon="2.97566">
        <ele>930</ele>
        <time>2015-10-17T23:26:04Z</time>
      </trkpt>
      <trkpt lat="45.8459" lon="2.97577">
        <ele>928</ele>
        <time>2015-10-17T23:28:04Z</time>
      </trkpt>
      <trkpt lat="45.84564" lon="2.97577">
        <ele>927</ele>
        <time>2015-10-17T23:30:04Z</time>
      </trkpt>
      <trkpt lat="45.84525" lon="2.97562">
        <ele>927</ele>
        <time>2015-10-17T23:32:04Z</time>
      </trkpt>
      <trkpt lat="45.84498" lon="2.97545">
        <ele>928</ele>
        <time>2015-10-17T23:34:04Z</time>
      </trkpt>
      <trkpt lat="45.84467" lon="2.97521">
        <ele>928</ele>
        <time>2015-10-17T23:36:04Z</time>
      </trkpt>
      <trkpt lat="45.84428" lon="2.97527">
        <ele>924</ele>
        <time>2015-10-17T23:38:04Z</time>
      </trkpt>
      <trkpt lat="45.84403" lon="2.97536">
        <ele>921</ele>
        <time>2015-10-17T23:40:04Z</time>
      </trkpt>
      <trkpt lat="45.84379" lon="2.97545">
        <ele>918</ele>
        <time>2015-10-17T23:42:04Z</time>
      </trkpt>
      <trkpt lat="45.84358" lon="2.9756">
        <ele>914</ele>
        <time>2015-10-17T23:44:04Z</time>
      </trkpt>
      <trkpt lat="45.84337" lon="2.97624">
        <ele>904</ele>
        <time>2015-10-17T23:46:04Z</time>
      </trkpt>
      <trkpt lat="45.84326" lon="2.97678">
        <ele>898</ele>
        <time>2015-10-17T23:48:04Z</time>
      </trkpt>
      <trkpt lat="45.84309" lon="2.97733">
        <ele>893</ele>
        <time>2015-10-17T23:50:04Z</time>
      </trkpt>
      <trkpt lat="45.84349" lon="2.9777">
        <ele>891</ele>
        <time>2015-10-17T23:52:04Z</time>
      </trkpt>
      <trkpt lat="45.84391" lon="2.97815">
        <ele>890</ele>
        <time>2015-10-17T23:54:04Z</time>
      </trkpt>
      <trkpt lat="45.84431" lon="2.9786">
        <ele>888</ele>
        <time>2015-10-17T23:56:04Z</time>
      </trkpt>
      <trkpt lat="45.84424" lon="2.97965">
        <ele>883</ele>
        <time>2015-10-17T23:58:04Z</time>
      </trkpt>
      <trkpt lat="45.84421" lon="2.9806">
        <ele>879</ele>
        <time>2015-10-18T00:00:04Z</time>
      </trkpt>
      <trkpt lat="45.84422" lon="2.98111">
        <ele>878</ele>
        <time>2015-10-18T00:02:04Z</time>
      </trkpt>
      <trkpt lat="45.84415" lon="2.98158">
        <ele>877</ele>
        <time>2015-10-18T00:04:04Z</time>
      </trkpt>
      <trkpt lat="45.84409" lon="2.98208">
        <ele>874</ele>
        <time>2015-10-18T00:06:04Z</time>
      </trkpt>
      <trkpt lat="45.84407" lon="2.98261">
        <ele>870</ele>
        <time>2015-10-18T00:08:04Z</time>
      </trkpt>
      <trkpt lat="45.84409" lon="2.98334">
        <ele>862</ele>
        <time>2015-10-18T00:10:04Z</time>
      </trkpt>
      <trkpt lat="45.8441" lon="2.98405">
        <ele>860</ele>
        <time>2015-10-18T00:12:04Z</time>
      </trkpt>
      <trkpt lat="45.84395" lon="2.98476">
        <ele>857</ele>
        <time>2015-10-18T00:14:04Z</time>
      </trkpt>
      <trkpt lat="45.84389" lon="2.98525">
        <ele>854</ele>
        <time>2015-10-18T00:16:04Z</time>
      </trkpt>
      <trkpt lat="45.84382" lon="2.986">
        <ele>850</ele>
        <time>2015-10-18T00:18:04Z</time>
      </trkpt>
      <trkpt lat="45.84374" lon="2.98693">
        <ele>848</ele>
        <time>2015-10-18T00:20:04Z</time>
      </trkpt>
      <trkpt lat="45.8437" lon="2.98781">
        <ele>847</ele>
        <time>2015-10-18T00:22:04Z</time>
      </trkpt>
      <trkpt lat="45.8437" lon="2.98847">
        <ele>845</ele>
        <time>2015-10-18T00:24:04Z</time>
      </trkpt>
      <trkpt lat="45.84413" lon="2.98849">
        <ele>844</ele>
        <time>2015-10-18T00:26:04Z</time>
      </trkpt>
      <trkpt lat="45.84454" lon="2.98862">
        <ele>845</ele>
        <time>2015-10-18T00:28:04Z</time>
      </trkpt>
      <trkpt lat="45.84492" lon="2.98856">
        <ele>847</ele>
        <time>2015-10-18T00:30:04Z</time>
      </trkpt>
      <trkpt lat="45.84491" lon="2.98959">
        <ele>844</ele>
        <time>2015-10-18T00:32:04Z</time>
      </trkpt>
      <trkpt lat="45.84491" lon="2.99006">
        <ele>842</ele>
        <time>2015-10-18T00:34:04Z</time>
      </trkpt>
      <trkpt lat="45.8448" lon="2.99068">
        <ele>840</ele>
        <time>2015-10-18T00:36:04Z</time>
      </trkpt>
      <trkpt lat="45.84477" lon="2.99109">
        <ele>838</ele>
        <time>2015-10-18T00:38:04Z</time>
      </trkpt>
      <trkpt lat="45.84465" lon="2.99178">
        <ele>836</ele>
        <time>2015-10-18T00:40:04Z</time>
      </trkpt>
      <trkpt lat="45.84449" lon="2.99203">
        <ele>834</ele>
        <time>2015-10-18T00:42:04Z</time>
      </trkpt>
      <trkpt lat="45.84494" lon="2.99233">
        <ele>838</ele>
        <time>2015-10-18T00:44:04Z</time>
      </trkpt>
      <trkpt lat="45.84554" lon="2.99268">
        <ele>838</ele>
        <time>2015-10-18T00:46:04Z</time>
      </trkpt>
      <trkpt lat="45.84618" lon="2.99319">
        <ele>836</ele>
        <time>2015-10-18T00:48:04Z</time>
      </trkpt>
      <trkpt lat="45.84654" lon="2.99356">
        <ele>835</ele>
        <time>2015-10-18T00:50:04Z</time>
      </trkpt>
      <trkpt lat="45.84721" lon="2.99426">
        <ele>832</ele>
        <time>2015-10-18T00:52:04Z</time>
      </trkpt>
      <trkpt lat="45.84766" lon="2.99476">
        <ele>827</ele>
        <time>2015-10-18T00:54:04Z</time>
      </trkpt>
      <trkpt lat="45.84797" lon="2.99519">
        <ele>824</ele>
        <time>2015-10-18T00:56:04Z</time>
      </trkpt>
      <trkpt lat="45.8483" lon="2.99562">
        <ele>821</ele>
        <time>2015-10-18T00:58:04Z</time>
      </trkpt>
      <trkpt lat="45.84863" lon="2.996">
        <ele>819</ele>
        <time>2015-10-18T01:00:04Z</time>
      </trkpt>
      <trkpt lat="45.84896" lon="2.99637">
        <ele>818</ele>
        <time>2015-10-18T01:02:04Z</time>
      </trkpt>
      <trkpt lat="45.84923" lon="2.99673">
        <ele>818</ele>
        <time>2015-10-18T01:04:04Z</time>
      </trkpt>
      <trkpt lat="45.84956" lon="2.99708">
        <ele>818</ele>
        <time>2015-10-18T01:06:04Z</time>
      </trkpt>
      <trkpt lat="45.8499" lon="2.99751">
        <ele>817</ele>
        <time>2015-10-18T01:08:04Z</time>
      </trkpt>
      <trkpt lat="45.85027" lon="2.99763">
        <ele>817</ele>
        <time>2015-10-18T01:10:04Z</time>
      </trkpt>
      <trkpt lat="45.85066" lon="2.99783">
        <ele>815</ele>
        <time>2015-10-18T01:12:04Z</time>
      </trkpt>
      <trkpt lat="45.85086" lon="2.99828">
        <ele>813</ele>
        <time>2015-10-18T01:14:04Z</time>
      </trkpt>
      <trkpt lat="45.85134" lon="2.99847">
        <ele>810</ele>
        <time>2015-10-18T01:16:04Z</time>
      </trkpt>
      <trkpt lat="45.85192" lon="2.99877">
        <ele>807</ele>
        <time>2015-10-18T01:18:04Z</time>
      </trkpt>
      <trkpt lat="45.85204" lon="2.99905">
        <ele>806</ele>
        <time>2015-10-18T01:20:04Z</time>
      </trkpt>
      <trkpt lat="45.8525" lon="2.99944">
        <ele>803</ele>
        <time>2015-10-18T01:22:04Z</time>
      </trkpt>
      <trkpt lat="45.85308" lon="2.9998">
        <ele>798</ele>
        <time>2015-10-18T01:24:04Z</time>
      </trkpt>
      <trkpt lat="45.85361" lon="3.00006">
        <ele>794</ele>
        <time>2015-10-18T01:26:04Z</time>
      </trkpt>
      <trkpt lat="45.85404" lon="3.00019">
        <ele>791</ele>
        <time>2015-10-18T01:28:04Z</time>
      </trkpt>
      <trkpt lat="45.85438" lon="3.0007">
        <ele>787</ele>
        <time>2015-10-18T01:30:04Z</time>
      </trkpt>
      <trkpt lat="45.85468" lon="3.00107">
        <ele>783</ele>
        <time>2015-10-18T01:32:04Z</time>
      </trkpt>
      <trkpt lat="45.855" lon="3.00145">
        <ele>778</ele>
        <time>2015-10-18T01:34:04Z</time>
      </trkpt>
      <trkpt lat="45.85521" lon="3.00197">
        <ele>777</ele>
        <time>2015-10-18T01:36:04Z</time>
      </trkpt>
      <trkpt lat="45.85528" lon="3.00238">
        <ele>776</ele>
        <time>2015-10-18T01:38:04Z</time>
      </trkpt>
      <trkpt lat="45.85552" lon="3.00291">
        <ele>775</ele>
        <time>2015-10-18T01:40:04Z</time>
      </trkpt>
      <trkpt lat="45.8558" lon="3.00347">
        <ele>775</ele>
        <time>2015-10-18T01:42:04Z</time>
      </trkpt>
      <trkpt lat="45.85586" lon="3.00272">
        <ele>776</ele>
        <time>2015-10-18T01:44:04Z</time>
      </trkpt>
      <trkpt lat="45.85594" lon="3.00195">
        <ele>778</ele>
        <time>2015-10-18T01:46:04Z</time>
      </trkpt>
      <trkpt lat="45.85592" lon="3.00128">
        <ele>780</ele>
        <time>2015-10-18T01:48:04Z</time>
      </trkpt>
      <trkpt lat="45.85604" lon="3.00047">
        <ele>785</ele>
        <time>2015-10-18T01:50:04Z</time>
      </trkpt>
      <trkpt lat="45.85604" lon="2.99976">
        <ele>787</ele>
        <time>2015-10-18T01:52:04Z</time>
      </trkpt>
      <trkpt lat="45.85607" lon="2.99899">
        <ele>789</ele>
        <time>2015-10-18T01:54:04Z</time>
      </trkpt>
      <trkpt lat="45.85604" lon="2.99838">
        <ele>790</ele>
        <time>2015-10-18T01:56:04Z</time>
      </trkpt>
      <trkpt lat="45.85669" lon="2.99802">
        <ele>792</ele>
        <time>2015-10-18T01:58:04Z</time>
      </trkpt>
      <trkpt lat="45.85705" lon="2.99768">
        <ele>794</ele>
        <time>2015-10-18T02:00:04Z</time>
      </trkpt>
      <trkpt lat="45.85749" lon="2.99748">
        <ele>795</ele>
        <time>2015-10-18T02:02:04Z</time>
      </trkpt>
      <trkpt lat="45.85782" lon="2.99781">
        <ele>796</ele>
        <time>2015-10-18T02:04:04Z</time>
      </trkpt>
      <trkpt lat="45.85858" lon="2.99796">
        <ele>801</ele>
        <time>2015-10-18T02:06:04Z</time>
      </trkpt>
      <trkpt lat="45.85906" lon="2.99761">
        <ele>809</ele>
        <time>2015-10-18T02:08:04Z</time>
      </trkpt>
      <trkpt lat="45.85929" lon="2.99703">
        <ele>817</ele>
        <time>2015-10-18T02:10:04Z</time>
      </trkpt>
      <trkpt lat="45.85985" lon="2.99695">
        <ele>823</ele>
        <time>2015-10-18T02:12:04Z</time>
      </trkpt>
      <trkpt lat="45.86042" lon="2.99663">
        <ele>836</ele>
        <time>2015-10-18T02:14:04Z</time>
      </trkpt>
      <trkpt lat="45.86051" lon="2.99632">
        <ele>843</ele>
        <time>2015-10-18T02:16:04Z</time>
      </trkpt>
      <trkpt lat="45.86075" lon="2.9963">
        <ele>847</ele>
        <time>2015-10-18T02:18:04Z</time>
      </trkpt>
      <trkpt lat="45.86056" lon="2.9959">
        <ele>851</ele>
        <time>2015-10-18T02:20:04Z</time>
      </trkpt>
      <trkpt lat="45.86051" lon="2.99538">
        <ele>859</ele>
        <time>2015-10-18T02:22:04Z</time>
      </trkpt>
      <trkpt lat="45.86065" lon="2.99482">
        <ele>870</ele>
        <time>2015-10-18T02:24:04Z</time>
      </trkpt>
      <trkpt lat="45.86099" lon="2.99448">
        <ele>875</ele>
        <time>2015-10-18T02:26:04Z</time>
      </trkpt>
      <trkpt lat="45.86105" lon="2.99414">
        <ele>877</ele>
        <time>2015-10-18T02:28:04Z</time>
      </trkpt>
      <trkpt lat="45.86126" lon="2.99377">
        <ele>877</ele>
        <time>2015-10-18T02:30:04Z</time>
      </trkpt>
      <trkpt lat="45.86175" lon="2.99343">
        <ele>875</ele>
        <time>2015-10-18T02:32:04Z</time>
      </trkpt>
      <trkpt lat="45.86211" lon="2.99285">
        <ele>876</ele>
        <time>2015-10-18T02:34:04Z</time>
      </trkpt>
      <trkpt lat="45.86223" lon="2.99255">
        <ele>878</ele>
        <time>2015-10-18T02:36:04Z</time>
      </trkpt>
      <trkpt lat="45.86247" lon="2.99251">
        <ele>879</ele>
        <time>2015-10-18T02:38:04Z</time>
      </trkpt>
      <trkpt lat="45.86265" lon="2.99276">
        <ele>877</ele>
        <time>2015-10-18T02:40:04Z</time>
      </trkpt>
      <trkpt lat="45.86298" lon="2.99323">
        <ele>875</ele>
        <time>2015-10-18T02:42:04Z</time>
      </trkpt>
      <trkpt lat="45.86323" lon="2.99392">
        <ele>873</ele>
        <time>2015-10-18T02:44:04Z</time>
      </trkpt>
      <trkpt lat="45.8634" lon="2.99401">
        <ele>873</ele>
        <time>2015-10-18T02:46:04Z</time>
      </trkpt>
      <trkpt lat="45.86362" lon="2.99429">
        <ele>872</ele>
        <time>2015-10-18T02:48:04Z</time>
      </trkpt>
      <trkpt lat="45.86372" lon="2.99403">
        <ele>873</ele>
        <time>2015-10-18T02:50:04Z</time>
      </trkpt>
      <trkpt lat="45.86419" lon="2.99377">
        <ele>873</ele>
        <time>2015-10-18T02:52:04Z</time>
      </trkpt>
      <trkpt lat="45.86462" lon="2.99336">
        <ele>871</ele>
        <time>2015-10-18T02:54:04Z</time>
      </trkpt>
      <trkpt lat="45.86498" lon="2.99304">
        <ele>871</ele>
        <time>2015-10-18T02:56:04Z</time>
      </trkpt>
      <trkpt lat="45.86523" lon="2.99266">
        <ele>869</ele>
        <time>2015-10-18T02:58:04Z</time>
      </trkpt>
      <trkpt lat="45.86523" lon="2.9922">
        <ele>869</ele>
        <time>2015-10-18T03:00:04Z</time>
      </trkpt>
      <trkpt lat="45.86519" lon="2.99173">
        <ele>870</ele>
        <time>2015-10-18T03:02:04Z</time>
      </trkpt>
      <trkpt lat="45.86534" lon="2.9916">
        <ele>868</ele>
        <time>2015-10-18T03:04:04Z</time>
      </trkpt>
      <trkpt lat="45.8654" lon="2.9913">
        <ele>868</ele>
        <time>2015-10-18T03:06:04Z</time>
      </trkpt>
      <trkpt lat="45.86573" lon="2.9907">
        <ele>860</ele>
        <time>2015-10-18T03:08:04Z</time>
      </trkpt>
      <trkpt lat="45.86595" lon="2.9907">
        <ele>856</ele>
        <time>2015-10-18T03:10:04Z</time>
      </trkpt>
      <trkpt lat="45.86615" lon="2.98948">
        <ele>852</ele>
        <time>2015-10-18T03:12:04Z</time>
      </trkpt>
      <trkpt lat="45.86609" lon="2.98903">
        <ele>850</ele>
        <time>2015-10-18T03:14:04Z</time>
      </trkpt>
      <trkpt lat="45.86577" lon="2.98886">
        <ele>851</ele>
        <time>2015-10-18T03:16:04Z</time>
      </trkpt>
      <trkpt lat="45.86561" lon="2.98856">
        <ele>853</ele>
        <time>2015-10-18T03:18:04Z</time>
      </trkpt>
      <trkpt lat="45.86564" lon="2.98811">
        <ele>852</ele>
        <time>2015-10-18T03:20:04Z</time>
      </trkpt>
      <trkpt lat="45.86582" lon="2.98768">
        <ele>852</ele>
        <time>2015-10-18T03:22:04Z</time>
      </trkpt>
      <trkpt lat="45.86613" lon="2.98746">
        <ele>851</ele>
        <time>2015-10-18T03:24:04Z</time>
      </trkpt>
      <trkpt lat="45.86685" lon="2.98755">
        <ele>841</ele>
        <time>2015-10-18T03:26:04Z</time>
      </trkpt>
      <trkpt lat="45.86727" lon="2.98798">
        <ele>832</ele>
        <time>2015-10-18T03:28:04Z</time>
      </trkpt>
      <trkpt lat="45.86759" lon="2.98843">
        <ele>828</ele>
        <time>2015-10-18T03:30:04Z</time>
      </trkpt>
      <trkpt lat="45.86816" lon="2.98873">
        <ele>818</ele>
        <time>2015-10-18T03:32:04Z</time>
      </trkpt>
      <trkpt lat="45.86866" lon="2.98879">
        <ele>809</ele>
        <time>2015-10-18T03:34:04Z</time>
      </trkpt>
      <trkpt lat="45.86912" lon="2.98909">
        <ele>802</ele>
        <time>2015-10-18T03:36:04Z</time>
      </trkpt>
      <trkpt lat="45.86957" lon="2.98954">
        <ele>800</ele>
        <time>2015-10-18T03:38:04Z</time>
      </trkpt>
      <trkpt lat="45.86994" lon="2.9901">
        <ele>798</ele>
        <time>2015-10-18T03:40:04Z</time>
      </trkpt>
      <trkpt lat="45.87025" lon="2.99055">
        <ele>796</ele>
        <time>2015-10-18T03:42:04Z</time>
      </trkpt>
      <trkpt lat="45.87061" lon="2.99105">
        <ele>792</ele>
        <time>2015-10-18T03:44:04Z</time>
      </trkpt>
      <trkpt lat="45.87079" lon="2.99148">
        <ele>788</ele>
        <time>2015-10-18T03:46:04Z</time>
      </trkpt>
      <trkpt lat="45.87111" lon="2.99171">
        <ele>785</ele>
        <time>2015-10-18T03:48:04Z</time>
      </trkpt>
      <trkpt lat="45.87121" lon="2.99126">
        <ele>788</ele>
        <time>2015-10-18T03:50:04Z</time>
      </trkpt>
    </trkseg>
  </trk>
</gpx>